Time;durP1;ratioP1;P1;durP2;ratioP2;P2;SDS_P1;SDS_P2;PMS_P1;PMS_P2;Temp;Humidity;BMP_temperature;BMP_pressure;BME280_temperature;BME280_humidity;BME280_pressure;Samples;Min_cycle;Max_cycle;Signal;HPM_P1;HPM_P2
2023/01/28 00:01:39;;;;;;;;;;;;;;;-144.99;71.00;52627.47;5067380;28;19936;-77
2023/01/28 00:04:05;;;;;;;;;;;;;;;-144.99;70.91;52607.09;5075685;28;20407;-78
2023/01/28 00:06:32;;;;;;;;;;;;;;;-144.99;70.96;52611.16;5085544;28;20004;-74
2023/01/28 00:08:58;;;;;;;;;;;;;;;-144.99;70.77;52623.38;5109502;28;19927;-73
2023/01/28 00:11:25;;;;;;;;;;;;;;;-144.99;70.53;52684.53;5077197;22;19968;-76
2023/01/28 00:13:52;;;;;;;;;;;;;;;-144.99;70.46;52619.31;5048273;28;20019;-76
2023/01/28 00:16:19;;;;;;;;;;;;;;;-144.99;70.66;52631.53;5050749;28;19928;-76
2023/01/28 00:18:47;;;;;;;;;;;;;;;-144.99;70.66;52603.00;5067155;28;20446;-77
2023/01/28 00:21:14;;;;;;;;;;;;;;;-144.99;70.36;52558.16;5052967;28;19925;-76
2023/01/28 00:23:41;;;;;;;;;;;;;;;-144.99;70.27;52572.44;5051865;28;19968;-76
2023/01/28 00:26:11;;;;;;;;;;;;;;;-144.99;70.46;52576.50;5049709;28;19928;-76
2023/01/28 00:28:37;;;;;;;;;;;;;;;-144.99;70.82;52590.78;5051567;28;19929;-76
2023/01/28 00:31:08;;;;;;;;;;;;;;;-144.99;70.98;52615.25;5051369;28;19967;-76
2023/01/28 00:33:35;;;;;;;;;;;;;;;-144.99;71.12;52607.09;5051597;28;19931;-76
2023/01/28 00:36:05;;;;;;;;;;;;;;;-144.99;71.10;52574.47;5046069;28;20008;-75
2023/01/28 00:38:31;;;;;;;;;;;;;;;-144.99;71.12;52603.00;5051514;28;19924;-76
2023/01/28 00:41:06;;;;;;;;;;;;;;;-144.99;71.08;52598.94;5047208;28;20460;-76
2023/01/28 00:43:33;;;;;;;;;;;;;;;-144.99;71.28;52605.03;5045395;28;19975;-76
2023/01/28 00:45:59;;;;;;;;;;;;;;;-144.99;71.28;52590.78;5049584;28;19982;-75
2023/01/28 00:48:25;;;;;;;;;;;;;;;-144.99;71.19;52637.66;5051451;28;19971;-75
2023/01/28 00:50:52;;;;;;;;;;;;;;;-144.99;70.83;52598.94;5054951;28;20466;-75
2023/01/28 00:53:20;;;;;;;;;;;;;;;-144.99;71.07;52586.69;5050899;28;19980;-75
2023/01/28 00:55:46;;;;;;;;;;;;;;;-144.99;71.25;52594.84;5050438;28;19975;-74
2023/01/28 00:58:13;;;;;;;;;;;;;;;-144.99;71.18;52623.38;5057641;28;19956;-74
2023/01/28 01:00:39;;;;;;;;;;;;;;;-144.99;71.28;52590.78;5058111;28;19928;-75
2023/01/28 01:03:05;;;;;;;;;;;;;;;-144.99;71.32;52586.69;5053743;28;19955;-74
2023/01/28 01:05:33;;;;;;;;;;;;;;;-144.99;71.32;52594.84;5052300;28;20019;-74
2023/01/28 01:07:59;;;;;;;;;;;;;;;-144.99;71.58;52590.78;5051010;28;20234;-74
2023/01/28 01:10:27;;;;;;;;;;;;;;;-144.99;71.60;52615.25;5049968;28;19983;-75
2023/01/28 01:12:54;;;;;;;;;;;;;;;-144.99;71.55;52576.50;5050587;28;20015;-75
2023/01/28 01:15:20;;;;;;;;;;;;;;;-144.99;71.58;52619.31;5058384;28;20395;-74
2023/01/28 01:17:48;;;;;;;;;;;;;;;-144.99;71.36;52611.16;5050662;28;20414;-74
2023/01/28 01:20:16;;;;;;;;;;;;;;;-144.99;71.39;52623.38;5050677;28;20027;-74
2023/01/28 01:22:43;;;;;;;;;;;;;;;-144.99;71.16;52629.50;5050910;28;19956;-74
2023/01/28 01:25:10;;;;;;;;;;;;;;;-144.99;71.32;52590.78;5050756;28;20343;-74
2023/01/28 01:27:38;;;;;;;;;;;;;;;-144.99;71.29;52629.50;5049291;28;19960;-74
2023/01/28 01:30:06;;;;;;;;;;;;;;;-144.99;71.37;52623.38;5050473;28;19932;-75
2023/01/28 01:32:33;;;;;;;;;;;;;;;-144.99;71.28;52611.16;5051638;28;19933;-75
2023/01/28 01:35:00;;;;;;;;;;;;;;;-144.99;71.30;52631.53;5049548;28;20281;-75
2023/01/28 01:37:26;;;;;;;;;;;;;;;-144.99;71.35;52603.00;5045605;28;20032;-75
2023/01/28 01:39:53;;;;;;;;;;;;;;;-144.99;71.42;52621.34;5049471;28;19964;-72
2023/01/28 01:42:19;;;;;;;;;;;;;;;-144.99;71.56;52586.69;5050299;28;20031;-76
2023/01/28 01:44:55;;;;;;;;;;;;;;;-144.99;71.51;52623.38;5048330;28;19932;-75
2023/01/28 01:47:24;;;;;;;;;;;;;;;-144.99;71.59;52611.16;5050183;28;19928;-75
2023/01/28 01:49:50;;;;;;;;;;;;;;;-144.99;71.53;52625.44;5050953;28;19929;-76
2023/01/28 01:52:19;;;;;;;;;;;;;;;-144.99;71.57;52598.94;5042011;28;20008;-75
2023/01/28 01:54:51;;;;;;;;;;;;;;;-144.99;71.66;52619.31;5050270;28;19968;-76
2023/01/28 01:57:22;;;;;;;;;;;;;;;-144.99;71.86;52617.28;5048522;28;20012;-76
2023/01/28 01:59:48;;;;;;;;;;;;;;;-144.99;71.77;52641.72;5049967;28;20008;-74
2023/01/28 02:02:17;;;;;;;;;;;;;;;-144.99;72.00;52619.31;5050747;28;19964;-74
2023/01/28 02:04:44;;;;;;;;;;;;;;;-144.99;72.23;52611.16;5052389;28;20663;-74
2023/01/28 02:07:12;;;;;;;;;;;;;;;-144.99;72.39;52639.69;5048753;28;20011;-74
2023/01/28 02:09:40;;;;;;;;;;;;;;;-144.99;72.11;52619.31;5046534;28;19964;-74
2023/01/28 02:12:09;;;;;;;;;;;;;;;-144.99;72.17;52639.69;5049339;28;19931;-74
2023/01/28 02:14:38;;;;;;;;;;;;;;;-144.99;72.08;52631.53;5050589;28;20059;-74
2023/01/28 02:17:04;;;;;;;;;;;;;;;-144.99;72.05;52598.94;5049980;28;19955;-75
2023/01/28 02:19:36;;;;;;;;;;;;;;;-144.99;72.03;52603.00;5050735;28;20032;-75
2023/01/28 02:22:14;;;;;;;;;;;;;;;-144.99;72.04;52635.63;5051011;28;20413;-74
2023/01/28 02:24:59;;;;;;;;;;;;;;;-144.99;72.21;52598.94;5049062;28;20327;-75
2023/01/28 02:27:30;;;;;;;;;;;;;;;-144.99;72.23;52621.34;5052931;28;19964;-74
2023/01/28 02:30:02;;;;;;;;;;;;;;;-144.99;72.14;52574.47;5057502;28;19952;-73
2023/01/28 02:32:30;;;;;;;;;;;;;;;-144.99;72.28;52615.25;5054209;28;19986;-73
2023/01/28 02:35:01;;;;;;;;;;;;;;;-144.99;72.24;52578.53;5055500;28;19948;-74
2023/01/28 02:37:33;;;;;;;;;;;;;;;-144.99;72.40;52615.25;5053717;28;20012;-75
2023/01/28 02:40:02;;;;;;;;;;;;;;;-144.99;72.44;52615.25;5054833;28;20354;-74
2023/01/28 02:42:30;;;;;;;;;;;;;;;-144.99;72.39;52627.47;5052954;28;19925;-74
2023/01/28 02:44:58;;;;;;;;;;;;;;;-144.99;72.37;52619.31;5052507;28;19960;-76
2023/01/28 02:50:12;;;;;;;;;;;;;;;-144.99;72.19;52629.50;5055282;28;19935;-76
2023/01/28 02:55:35;;;;;;;;;;;;;;;-144.99;72.13;52611.16;5054309;28;20406;-75
2023/01/28 02:58:07;;;;;;;;;;;;;;;-144.99;72.15;52594.84;5059147;28;20017;-78
2023/01/28 03:00:41;;;;;;;;;;;;;;;-144.99;71.94;52635.63;5073275;28;19935;-77
2023/01/28 03:03:12;;;;;;;;;;;;;;;-144.99;72.10;52627.47;5071594;28;19913;-78
2023/01/28 03:05:41;;;;;;;;;;;;;;;-144.99;72.00;52603.00;5074671;28;19921;-75
2023/01/28 03:38:22;;;;;;;;;;;;;;;-144.99;71.24;52598.94;5055727;28;19931;-75
2023/01/28 03:40:49;;;;;;;;;;;;;;;-144.99;71.07;52578.53;5059577;28;19951;-74
2023/01/28 03:43:16;;;;;;;;;;;;;;;-144.99;71.03;52643.78;5056331;28;19928;-74
2023/01/28 03:45:42;;;;;;;;;;;;;;;-144.99;70.96;52635.63;5052761;28;20009;-74
2023/01/28 03:48:10;;;;;;;;;;;;;;;-144.99;70.98;52664.16;5053610;28;19925;-76
2023/01/28 03:50:37;;;;;;;;;;;;;;;-144.99;70.47;52607.09;5052371;28;20092;-75
2023/01/28 03:53:12;;;;;;;;;;;;;;;-144.99;70.41;52611.16;5050235;28;19990;-75
2023/01/28 03:55:39;;;;;;;;;;;;;;;-144.99;70.29;52627.47;5046813;28;19925;-75
2023/01/28 03:58:05;;;;;;;;;;;;;;;-144.99;70.39;52607.09;5051947;28;19970;-75
2023/01/28 04:00:32;;;;;;;;;;;;;;;-144.99;70.29;52594.84;5051709;28;19968;-74
2023/01/28 04:02:59;;;;;;;;;;;;;;;-144.99;70.33;52582.63;5061084;28;19964;-74
2023/01/28 04:05:27;;;;;;;;;;;;;;;-144.99;70.71;52603.00;5050453;28;20275;-75
2023/01/28 04:07:54;;;;;;;;;;;;;;;-144.99;70.60;52653.97;5051636;28;19960;-75
2023/01/28 04:10:21;;;;;;;;;;;;;;;-144.99;70.29;52598.94;5051183;28;19968;-75
2023/01/28 04:12:48;;;;;;;;;;;;;;;-144.99;70.28;52623.38;5051545;28;19964;-76
2023/01/28 04:15:15;;;;;;;;;;;;;;;-144.99;70.08;52631.53;5049763;28;19933;-75
2023/01/28 04:17:44;;;;;;;;;;;;;;;-144.99;69.83;52607.09;5054870;28;19925;-75
2023/01/28 04:20:12;;;;;;;;;;;;;;;-144.99;69.83;52607.09;5053471;28;19924;-76
2023/01/28 04:22:40;;;;;;;;;;;;;;;-144.99;69.80;52598.94;5051359;28;20276;-76
2023/01/28 04:25:07;;;;;;;;;;;;;;;-144.99;69.85;52611.16;5049413;28;20354;-75
2023/01/28 04:27:33;;;;;;;;;;;;;;;-144.99;69.91;52611.16;5052304;28;19925;-73
2023/01/28 04:30:00;;;;;;;;;;;;;;;-144.99;69.80;52639.69;5052347;28;19924;-74
2023/01/28 04:32:26;;;;;;;;;;;;;;;-144.99;69.44;52619.31;5051770;28;19925;-76
2023/01/28 04:34:52;;;;;;;;;;;;;;;-144.99;69.40;52639.69;5050937;28;19979;-74
2023/01/28 04:37:19;;;;;;;;;;;;;;;-144.99;69.45;52611.16;5052378;28;19983;-74
2023/01/28 04:39:47;;;;;;;;;;;;;;;-144.99;69.55;52598.94;5052160;28;19976;-74
2023/01/28 04:42:13;;;;;;;;;;;;;;;-144.99;69.55;52619.31;5050487;28;19964;-74
2023/01/28 04:44:40;;;;;;;;;;;;;;;-144.99;69.34;52627.47;5052461;28;19925;-74
2023/01/28 04:47:06;;;;;;;;;;;;;;;-144.99;69.38;52619.31;5051951;28;19963;-76
2023/01/28 04:49:32;;;;;;;;;;;;;;;-144.99;69.53;52627.47;5055624;28;20051;-75
2023/01/28 04:51:59;;;;;;;;;;;;;;;-144.99;69.77;52647.84;5053420;28;19925;-75
2023/01/28 04:54:25;;;;;;;;;;;;;;;-144.99;69.85;52633.59;5049264;28;19996;-74
2023/01/28 04:56:55;;;;;;;;;;;;;;;-144.99;69.94;52625.44;5054003;28;19976;-72
2023/01/28 04:59:22;;;;;;;;;;;;;;;-144.99;70.32;52651.94;5052017;28;20595;-74
2023/01/28 05:01:49;;;;;;;;;;;;;;;-144.99;70.54;52594.84;5052495;28;20559;-75
2023/01/28 05:04:16;;;;;;;;;;;;;;;-144.99;70.98;52627.47;5051503;28;19929;-75
2023/01/28 05:06:42;;;;;;;;;;;;;;;-144.99;71.12;52627.47;5053071;28;20019;-75
2023/01/28 05:09:09;;;;;;;;;;;;;;;-144.99;71.56;52594.84;5052236;28;19924;-75
2023/01/28 05:11:35;;;;;;;;;;;;;;;-144.99;71.88;52605.03;5058073;28;19924;-75
2023/01/28 05:14:03;;;;;;;;;;;;;;;-144.99;72.12;52627.47;5053753;28;19963;-71
2023/01/28 05:16:30;;;;;;;;;;;;;;;-144.99;72.70;52611.16;5052372;28;20028;-72
2023/01/28 05:18:57;;;;;;;;;;;;;;;-144.99;73.13;52639.69;5051188;28;20019;-71
2023/01/28 05:21:23;;;;;;;;;;;;;;;-144.99;73.26;52619.31;5050672;28;19971;-72
2023/01/28 05:23:50;;;;;;;;;;;;;;;-144.99;73.57;52627.47;5056273;28;19933;-73
2023/01/28 05:26:16;;;;;;;;;;;;;;;-144.99;73.79;52637.66;5049996;28;19976;-73
2023/01/28 05:28:43;;;;;;;;;;;;;;;-144.99;74.16;52643.78;5050270;28;19986;-75
2023/01/28 05:31:11;;;;;;;;;;;;;;;-144.99;74.40;52627.47;5049826;28;19968;-72
2023/01/28 05:33:37;;;;;;;;;;;;;;;-144.99;74.62;52631.53;5049870;28;19971;-72
2023/01/28 05:36:04;;;;;;;;;;;;;;;-144.99;75.30;52631.53;5048784;28;19925;-72
2023/01/28 05:38:30;;;;;;;;;;;;;;;-144.99;75.57;52603.00;5051648;28;19994;-72
2023/01/28 05:40:57;;;;;;;;;;;;;;;-144.99;75.73;52613.19;5050259;28;20012;-75
2023/01/28 05:43:23;;;;;;;;;;;;;;;-144.99;75.78;52613.19;5046775;28;20343;-75
2023/01/28 05:45:50;;;;;;;;;;;;;;;-144.99;76.21;52623.38;5044339;28;20701;-75
2023/01/28 05:48:17;;;;;;;;;;;;;;;-144.99;76.73;52627.47;5050162;28;20619;-75
2023/01/28 05:50:46;;;;;;;;;;;;;;;-144.99;77.18;52672.31;5054433;28;19960;-75
2023/01/28 05:53:12;;;;;;;;;;;;;;;-144.99;77.30;52641.72;5043816;28;19972;-74
2023/01/28 05:55:39;;;;;;;;;;;;;;;-144.99;77.81;52635.63;5049655;28;20012;-74
2023/01/28 05:58:05;;;;;;;;;;;;;;;-144.99;78.18;52627.47;5048712;28;20410;-73
2023/01/28 06:00:32;;;;;;;;;;;;;;;-144.99;78.15;52623.38;5050917;28;19980;-74
2023/01/28 06:02:58;;;;;;;;;;;;;;;-144.99;78.42;52605.03;5051282;28;19978;-74
2023/01/28 06:05:26;;;;;;;;;;;;;;;-144.99;78.46;52594.84;5052868;28;19925;-74
2023/01/28 06:07:53;;;;;;;;;;;;;;;-144.99;78.79;52578.53;5046399;28;19987;-74
2023/01/28 06:10:19;;;;;;;;;;;;;;;-144.99;79.00;52607.09;5059012;28;19971;-74
2023/01/28 06:12:46;;;;;;;;;;;;;;;-144.99;78.96;52664.16;5095737;22;19928;-74
2023/01/28 06:15:12;;;;;;;;;;;;;;;-144.99;79.46;52617.28;5086428;28;20010;-75
2023/01/28 06:17:39;;;;;;;;;;;;;;;-144.99;79.60;52651.94;5093217;28;20003;-75
2023/01/28 06:20:07;;;;;;;;;;;;;;;-144.99;79.73;52600.97;5091918;28;20051;-77
2023/01/28 06:22:35;;;;;;;;;;;;;;;-144.99;80.02;52603.00;5089245;28;19928;-76
2023/01/28 06:25:01;;;;;;;;;;;;;;;-144.99;80.19;52609.13;5090526;28;19927;-75
2023/01/28 06:27:28;;;;;;;;;;;;;;;-144.99;80.00;52605.03;5093069;28;19924;-75
2023/01/28 06:29:54;;;;;;;;;;;;;;;-144.99;80.48;52635.63;5095882;28;20444;-77
2023/01/28 06:32:21;;;;;;;;;;;;;;;-144.99;80.57;52586.69;5091348;28;20403;-75
2023/01/28 06:34:47;;;;;;;;;;;;;;;-144.99;80.82;52627.47;5088810;28;19925;-75
2023/01/28 06:37:14;;;;;;;;;;;;;;;-144.99;80.95;52598.94;5092930;28;19977;-73
2023/01/28 06:39:42;;;;;;;;;;;;;;;-144.99;81.11;52631.53;5090586;28;19928;-74
2023/01/28 06:42:08;;;;;;;;;;;;;;;-144.99;81.11;52615.25;5090725;28;19963;-76
2023/01/28 06:44:35;;;;;;;;;;;;;;;-144.99;81.31;52631.53;5097533;28;20011;-74
2023/01/28 06:47:01;;;;;;;;;;;;;;;-144.99;81.66;52603.00;5093000;28;20015;-75
2023/01/28 06:49:28;;;;;;;;;;;;;;;-144.99;81.91;52615.25;5094065;28;20069;-75
2023/01/28 06:51:54;;;;;;;;;;;;;;;-144.99;82.05;52643.78;5093367;28;19971;-77
2023/01/28 06:54:20;;;;;;;;;;;;;;;-144.99;82.65;52651.94;5093462;28;20003;-73
2023/01/28 06:56:48;;;;;;;;;;;;;;;-144.99;82.85;52611.16;5093330;28;19924;-74
2023/01/28 06:59:15;;;;;;;;;;;;;;;-144.99;82.99;52635.63;5093836;28;19989;-74
2023/01/28 07:01:41;;;;;;;;;;;;;;;-144.99;83.24;52611.16;5091501;28;20044;-75
2023/01/28 07:04:08;;;;;;;;;;;;;;;-144.99;83.48;52594.84;5089966;28;19997;-74
2023/01/28 07:06:34;;;;;;;;;;;;;;;-144.99;83.63;52598.94;5095962;28;19975;-75
2023/01/28 07:09:01;;;;;;;;;;;;;;;-144.99;84.08;52615.25;5090111;28;19971;-76
2023/01/28 07:11:27;;;;;;;;;;;;;;;-144.99;84.11;52631.53;5089223;28;19932;-75
2023/01/28 07:13:55;;;;;;;;;;;;;;;-144.99;84.24;52598.94;5089270;28;19932;-75
2023/01/28 07:16:22;;;;;;;;;;;;;;;-144.99;84.17;52613.19;5091071;28;20492;-73
2023/01/28 07:18:48;;;;;;;;;;;;;;;-144.99;84.37;52668.22;5093102;28;19959;-72
2023/01/28 07:21:14;;;;;;;;;;;;;;;-144.99;84.28;52631.53;5110265;28;19924;-77
2023/01/28 07:23:41;;;;;;;;;;;;;;;-144.99;84.51;52590.78;5102010;28;19932;-75
2023/01/28 07:26:07;;;;;;;;;;;;;;;-144.99;84.61;52619.31;5100618;28;19970;-76
2023/01/28 07:28:34;;;;;;;;;;;;;;;-144.99;84.66;52582.63;5091294;28;20380;-72
2023/01/28 07:31:02;;;;;;;;;;;;;;;-144.99;84.64;52603.00;5098740;28;19951;-75
2023/01/28 07:33:28;;;;;;;;;;;;;;;-144.99;84.49;52641.72;5093917;28;19982;-73
2023/01/28 07:35:55;;;;;;;;;;;;;;;-144.99;84.68;52594.84;5091934;28;19967;-74
2023/01/28 07:38:21;;;;;;;;;;;;;;;-144.99;84.48;52635.63;5086188;28;19932;-74
2023/01/28 07:40:48;;;;;;;;;;;;;;;-144.99;84.44;52627.47;5088206;28;19928;-75
2023/01/28 07:43:14;;;;;;;;;;;;;;;-144.99;83.95;52627.47;5087775;28;20349;-72
2023/01/28 07:45:41;;;;;;;;;;;;;;;-144.99;83.32;52633.59;5091941;28;19967;-73
2023/01/28 07:48:11;;;;;;;;;;;;;;;-144.99;83.57;52611.16;5091398;28;20074;-73
2023/01/28 07:50:38;;;;;;;;;;;;;;;-144.99;83.58;52623.38;5089977;28;20368;-74
2023/01/28 07:53:06;;;;;;;;;;;;;;;-144.99;83.77;52623.38;5089240;28;20424;-75
2023/01/28 07:55:34;;;;;;;;;;;;;;;-144.99;83.93;52611.16;5092705;28;19978;-71
2023/01/28 07:58:01;;;;;;;;;;;;;;;-144.99;84.28;52556.13;5092405;28;19939;-72
2023/01/28 08:00:30;;;;;;;;;;;;;;;-144.99;84.15;52570.38;5098749;28;19919;-72
2023/01/28 08:02:57;;;;;;;;;;;;;;;-144.99;83.78;52619.31;5100950;28;19924;-75
2023/01/28 08:05:26;;;;;;;;;;;;;;;-144.99;83.34;52603.00;5090285;28;20287;-78
2023/01/28 08:07:53;;;;;;;;;;;;;;;-144.99;82.67;52623.38;5091635;28;20019;-74
2023/01/28 08:10:19;;;;;;;;;;;;;;;-144.99;82.67;52586.69;5110908;28;19915;-85
2023/01/28 08:12:52;;;;;;;;;;;;;;;-144.99;81.91;52623.38;5105709;28;19981;-73
2023/01/28 08:15:19;;;;;;;;;;;;;;;-144.99;82.20;52584.66;5096658;28;19971;-74
2023/01/28 08:17:45;;;;;;;;;;;;;;;-144.99;81.84;52619.31;5091631;28;20302;-77
2023/01/28 08:20:12;;;;;;;;;;;;;;;-144.99;81.73;52560.19;5091347;28;20033;-74
2023/01/28 08:22:40;;;;;;;;;;;;;;;-144.99;81.50;52607.09;5093621;28;20439;-75
2023/01/28 08:25:07;;;;;;;;;;;;;;;-144.99;78.95;52611.16;5088987;28;19975;-73
2023/01/28 08:27:33;;;;;;;;;;;;;;;-144.99;76.22;52615.25;5094990;28;19977;-75
2023/01/28 08:30:00;;;;;;;;;;;;;;;-144.99;76.95;52562.25;5102493;28;19924;-75
2023/01/28 08:32:26;;;;;;;;;;;;;;;-144.99;75.47;52554.09;5094460;28;19959;-72
2023/01/28 08:34:52;;;;;;;;;;;;;;;-144.99;73.33;52594.84;5089032;28;20028;-76
2023/01/28 08:37:19;;;;;;;;;;;;;;;-144.99;72.52;52582.63;5090418;28;19974;-77
2023/01/28 08:39:47;;;;;;;;;;;;;;;-144.99;70.41;52588.75;5085471;28;19932;-77
2023/01/28 08:42:13;;;;;;;;;;;;;;;-144.99;70.01;52578.53;5091633;28;19990;-84
2023/01/28 08:44:40;;;;;;;;;;;;;;;-144.99;68.30;52558.16;5113705;28;19923;-89
2023/01/28 08:47:06;;;;;;;;;;;;;;;-144.99;67.75;52550.00;5103581;28;19953;-78
2023/01/28 08:49:33;;;;;;;;;;;;;;;-144.99;66.18;52545.94;5091371;28;19993;-79
2023/01/28 08:51:59;;;;;;;;;;;;;;;-144.99;65.58;52580.59;5090444;28;20464;-78
2023/01/28 08:54:26;;;;;;;;;;;;;;;-144.99;66.02;52533.69;5093054;28;19932;-78
2023/01/28 08:56:54;;;;;;;;;;;;;;;-144.99;65.48;52560.19;5090912;28;19923;-79
2023/01/28 08:59:20;;;;;;;;;;;;;;;-144.99;64.30;52539.81;5093507;28;19924;-80
2023/01/28 09:01:47;;;;;;;;;;;;;;;-144.99;62.40;52566.31;5083629;28;19977;-76
2023/01/28 09:04:13;;;;;;;;;;;;;;;-144.99;61.02;52578.53;5092869;28;19979;-80
2023/01/28 09:06:40;;;;;;;;;;;;;;;-144.99;60.52;52586.69;5095295;28;19924;-80
2023/01/28 09:09:08;;;;;;;;;;;;;;;-144.99;59.89;52529.63;5093506;28;19978;-81
2023/01/28 09:11:34;;;;;;;;;;;;;;;-144.99;60.76;52570.38;5093345;28;20438;-80
2023/01/28 09:14:02;;;;;;;;;;;;;;;-144.99;61.12;52529.63;5095575;28;19924;-78
2023/01/28 09:16:29;;;;;;;;;;;;;;;-144.99;60.88;52588.75;5080827;28;20051;-78
2023/01/28 09:18:55;;;;;;;;;;;;;;;-144.99;61.24;52564.28;5088726;28;19931;-78
2023/01/28 09:21:22;;;;;;;;;;;;;;;-144.99;60.80;52537.78;5084517;28;20012;-80
2023/01/28 09:23:48;;;;;;;;;;;;;;;-144.99;60.16;52543.91;5094276;28;19928;-81
2023/01/28 09:26:15;;;;;;;;;;;;;;;-144.99;59.68;52558.16;5092641;28;20453;-77
2023/01/28 09:28:41;;;;;;;;;;;;;;;-144.99;59.22;52564.28;5093455;28;19924;-80
2023/01/28 09:31:11;;;;;;;;;;;;;;;-144.99;58.23;52570.38;5092199;28;19928;-79
2023/01/28 09:33:39;;;;;;;;;;;;;;;-144.99;57.49;52533.69;5099588;28;19985;-83
2023/01/28 09:36:06;;;;;;;;;;;;;;;-144.99;56.85;52509.25;5099112;28;19931;-79
2023/01/28 09:38:35;;;;;;;;;;;;;;;-144.99;56.99;52517.41;5094452;28;19973;-83
2023/01/28 09:41:03;;;;;;;;;;;;;;;-144.99;55.41;52525.56;5094261;28;19924;-82
2023/01/28 09:43:41;;;;;;;;;;;;;;;-144.99;55.03;52529.63;5098741;28;19970;-80
2023/01/28 09:46:11;;;;;;;;;;;;;;;-144.99;54.65;52554.09;5093074;28;19951;-80
2023/01/28 09:48:40;;;;;;;;;;;;;;;-144.99;54.30;52558.16;5096566;28;19928;-80
2023/01/28 09:51:10;;;;;;;;;;;;;;;-144.99;53.76;52513.31;5096198;28;19970;-80
2023/01/28 09:53:40;;;;;;;;;;;;;;;-144.99;53.14;52566.31;5097598;28;19936;-81
2023/01/28 09:56:10;;;;;;;;;;;;;;;-144.99;53.27;52529.63;5099983;28;19935;-81
2023/01/28 09:58:37;;;;;;;;;;;;;;;-144.99;52.79;52529.63;5092486;28;19928;-80
2023/01/28 10:01:10;;;;;;;;;;;;;;;-144.99;52.54;52492.94;5103691;28;19943;-87
2023/01/28 10:03:47;;;;;;;;;;;;;;;-144.99;50.97;52456.25;5117218;28;19923;-78
2023/01/28 10:06:22;;;;;;;;;;;;;;;-144.99;49.91;52529.63;5099339;28;20333;-79
2023/01/28 10:08:58;;;;;;;;;;;;;;;-144.99;49.89;52476.63;5087912;28;19933;-79
2023/01/28 10:11:35;;;;;;;;;;;;;;;-144.99;49.31;52525.56;5099738;28;19924;-78
2023/01/28 10:14:08;;;;;;;;;;;;;;;-144.99;48.10;52419.56;5098127;28;19970;-79
2023/01/28 10:16:37;;;;;;;;;;;;;;;-144.99;47.63;52468.47;5100465;28;19985;-81
2023/01/28 10:19:07;;;;;;;;;;;;;;;-144.99;47.62;52517.41;5096522;28;19977;-79
2023/01/28 10:21:37;;;;;;;;;;;;;;;-144.99;47.56;52466.44;5098547;28;19958;-80
2023/01/28 10:24:06;;;;;;;;;;;;;;;-144.99;46.55;52470.50;5096039;28;19956;-79
2023/01/28 10:26:35;;;;;;;;;;;;;;;-144.99;46.19;52480.72;5098096;28;20019;-80
2023/01/28 10:29:04;;;;;;;;;;;;;;;-144.99;45.35;52458.28;5091058;28;20464;-78
2023/01/28 10:31:35;;;;;;;;;;;;;;;-144.99;44.80;52452.16;5084044;28;19925;-83
2023/01/28 10:34:03;;;;;;;;;;;;;;;-144.99;43.84;52399.19;5094011;28;19978;-85
2023/01/28 10:36:31;;;;;;;;;;;;;;;-144.99;44.21;52427.72;5093085;28;19985;-79
2023/01/28 10:38:58;;;;;;;;;;;;;;;-144.99;43.28;52325.81;5109722;28;19928;-83
2023/01/28 10:41:25;;;;;;;;;;;;;;;-144.99;41.79;52317.66;5113608;28;19924;-80
2023/01/28 10:43:52;;;;;;;;;;;;;;;-144.99;40.32;52315.59;5105247;28;19931;-81
2023/01/28 10:46:21;;;;;;;;;;;;;;;-144.99;39.58;52340.06;5103230;28;20521;-82
2023/01/28 10:48:48;;;;;;;;;;;;;;;-144.99;38.84;52374.72;5103468;28;19984;-81
2023/01/28 10:51:15;;;;;;;;;;;;;;;-144.99;39.14;52374.72;5104470;28;19965;-80
2023/01/28 10:53:43;;;;;;;;;;;;;;;-144.99;39.75;52415.47;5099588;28;19925;-80
2023/01/28 10:56:11;;;;;;;;;;;;;;;-144.99;40.88;52444.03;5100039;28;19981;-80
2023/01/28 10:58:47;;;;;;;;;;;;;;;-144.99;41.46;52464.41;5102832;28;19924;-80
2023/01/28 11:01:14;;;;;;;;;;;;;;;-144.99;42.18;52439.94;5094478;28;19969;-80
2023/01/28 11:03:51;;;;;;;;;;;;;;;-144.99;42.84;52444.03;5094011;28;19928;-78
2023/01/28 11:06:23;;;;;;;;;;;;;;;-144.99;43.11;52395.09;5094849;28;19954;-80
2023/01/28 11:08:52;;;;;;;;;;;;;;;-144.99;43.03;52311.53;5095500;28;19947;-79
2023/01/28 11:11:24;;;;;;;;;;;;;;;-144.99;42.86;52468.47;5085961;28;19924;-80
2023/01/28 11:13:52;;;;;;;;;;;;;;;-144.99;43.48;52456.25;5094527;28;19932;-79
2023/01/28 11:16:19;;;;;;;;;;;;;;;-144.99;45.08;52456.25;5111217;28;19931;-84
2023/01/28 11:18:48;;;;;;;;;;;;;;;-144.99;45.35;52529.63;5107517;28;19925;-77
2023/01/28 11:21:17;;;;;;;;;;;;;;;-144.99;45.19;52574.47;5096206;28;19924;-78
2023/01/28 11:23:50;;;;;;;;;;;;;;;-144.99;46.17;52562.25;5095626;28;19924;-79
2023/01/28 11:26:19;;;;;;;;;;;;;;;-144.99;47.78;52570.38;5094579;28;19924;-80
2023/01/28 11:28:46;;;;;;;;;;;;;;;-144.99;49.05;52570.38;5094428;28;19924;-79
2023/01/28 11:31:15;;;;;;;;;;;;;;;-144.99;50.13;52562.25;5094912;28;19981;-77
2023/01/28 11:33:44;;;;;;;;;;;;;;;-144.99;49.95;52425.66;5094038;28;19950;-78
2023/01/28 11:36:14;;;;;;;;;;;;;;;-144.99;47.70;52458.28;5095493;28;19924;-80
2023/01/28 11:38:47;;;;;;;;;;;;;;;-144.99;44.41;52350.25;5096461;28;19955;-81
2023/01/28 11:41:15;;;;;;;;;;;;;;;-144.99;44.02;52482.75;5092585;28;19924;-78
2023/01/28 11:43:44;;;;;;;;;;;;;;;-144.99;44.99;52503.13;5095089;28;19928;-77
2023/01/28 11:46:17;;;;;;;;;;;;;;;-144.99;45.75;52521.47;5093555;28;20447;-81
2023/01/28 11:48:50;;;;;;;;;;;;;;;-144.99;46.20;52515.34;5095013;28;19924;-78
2023/01/28 11:51:22;;;;;;;;;;;;;;;-144.99;46.41;52529.63;5103782;28;20432;-78
2023/01/28 11:54:00;;;;;;;;;;;;;;;-144.99;46.24;52554.09;5093345;28;19974;-79
2023/01/28 11:56:42;;;;;;;;;;;;;;;-144.99;46.53;52517.41;5086697;28;19924;-78
2023/01/28 11:59:18;;;;;;;;;;;;;;;-144.99;46.79;52505.16;5091270;28;19981;-77
2023/01/28 12:01:49;;;;;;;;;;;;;;;-144.99;47.02;52533.69;5095149;28;19937;-78
2023/01/28 12:04:25;;;;;;;;;;;;;;;-144.99;47.07;52521.47;5093326;28;19966;-79
2023/01/28 12:06:58;;;;;;;;;;;;;;;-144.99;46.92;52521.47;5091762;28;19924;-78
2023/01/28 12:09:30;;;;;;;;;;;;;;;-144.99;46.35;52399.19;5092893;28;20000;-78
2023/01/28 12:12:13;;;;;;;;;;;;;;;-144.99;44.17;52484.78;5092661;28;20066;-79
2023/01/28 12:14:57;;;;;;;;;;;;;;;-144.99;43.88;52511.28;5091186;28;19928;-79
2023/01/28 12:17:29;;;;;;;;;;;;;;;-144.99;44.00;52505.16;5101305;22;19974;-75
2023/01/28 12:20:04;;;;;;;;;;;;;;;-144.99;45.36;52527.59;5071513;28;19929;-74
2023/01/28 12:22:38;;;;;;;;;;;;;;;-144.99;46.88;52554.09;5065362;28;20478;-75
2023/01/28 12:25:13;;;;;;;;;;;;;;;-144.99;47.39;52570.38;5070578;28;19928;-75
2023/01/28 12:27:44;;;;;;;;;;;;;;;-144.99;48.93;52598.94;5080851;28;20011;-75
2023/01/28 12:30:21;;;;;;;;;;;;;;;-144.99;49.27;52570.38;5089546;28;19929;-74
2023/01/28 12:32:53;;;;;;;;;;;;;;;-144.99;50.56;52668.22;5089305;28;19924;-75
2023/01/28 12:35:43;;;;;;;;;;;;;;;-144.99;50.49;52619.31;5085354;28;19924;-75
2023/01/28 12:38:14;;;;;;;;;;;;;;;-144.99;51.50;52566.31;5089774;28;19947;-73
2023/01/28 12:40:59;;;;;;;;;;;;;;;-144.99;51.62;52615.25;5084606;28;19924;-74
2023/01/28 12:43:34;;;;;;;;;;;;;;;-144.99;52.35;52596.88;5088341;28;19978;-75
2023/01/28 12:46:04;;;;;;;;;;;;;;;-144.99;53.33;52598.94;5084199;28;19925;-75
2023/01/28 12:48:34;;;;;;;;;;;;;;;-144.99;53.71;52603.00;5079400;28;19986;-74
2023/01/28 12:51:03;;;;;;;;;;;;;;;-144.99;53.79;52615.25;5090208;28;19932;-77
2023/01/28 12:53:33;;;;;;;;;;;;;;;-144.99;53.84;52578.53;5084323;28;19931;-75
2023/01/28 12:56:03;;;;;;;;;;;;;;;-144.99;54.20;52590.78;5082729;28;19913;-75
2023/01/28 12:58:35;;;;;;;;;;;;;;;-144.99;53.56;52658.03;5073182;28;19982;-74
2023/01/28 13:01:07;;;;;;;;;;;;;;;-144.99;53.98;52570.38;5080921;28;19925;-74
2023/01/28 13:03:35;;;;;;;;;;;;;;;-144.99;53.06;52448.09;5091281;28;19978;-76
2023/01/28 13:06:04;;;;;;;;;;;;;;;-144.99;50.38;52427.72;5088544;28;19938;-75
2023/01/28 13:08:31;;;;;;;;;;;;;;;-144.99;47.93;52403.25;5089605;28;19925;-75
2023/01/28 13:10:58;;;;;;;;;;;;;;;-144.99;45.53;52399.19;5091453;28;20375;-75